createdAt,value
2023-01-11T00:04:34.890Z,73.62
2023-01-11T00:09:34.741Z,73.62
2023-01-11T00:14:34.695Z,73.67
2023-01-11T00:19:34.614Z,73.68
2023-01-11T00:24:34.563Z,73.66
2023-01-11T00:29:34.476Z,73.68
2023-01-11T00:34:34.422Z,73.68
2023-01-11T00:39:34.364Z,73.65
2023-01-11T00:44:34.294Z,73.65
2023-01-11T00:49:34.230Z,73.76
2023-01-11T00:54:34.160Z,73.74
2023-01-11T00:59:34.090Z,73.86
2023-01-11T01:04:34.013Z,73.85
2023-01-11T01:09:54.192Z,73.41
2023-01-11T01:14:46.599Z,73.72
2023-01-11T01:19:46.540Z,73.94
2023-01-11T01:24:46.480Z,74.01
2023-01-11T01:29:46.406Z,74.00
2023-01-11T01:34:46.322Z,73.98
2023-01-11T01:39:46.253Z,73.99
2023-01-11T01:44:46.261Z,73.99
2023-01-11T01:49:46.476Z,73.94
2023-01-11T01:54:46.021Z,73.91
2023-01-11T01:59:46.033Z,73.95
2023-01-11T02:04:45.935Z,74.02
2023-01-11T02:09:45.844Z,74.18
2023-01-11T02:14:45.783Z,74.25
2023-01-11T02:19:45.726Z,74.33
2023-01-11T02:24:45.709Z,74.48
2023-01-11T02:29:45.605Z,74.56
2023-01-11T02:34:45.583Z,74.67
2023-01-11T02:39:45.464Z,74.66
2023-01-11T02:44:45.403Z,74.74
2023-01-11T02:49:45.310Z,74.79
2023-01-11T02:54:45.303Z,74.88
2023-01-11T02:59:45.170Z,74.96
2023-01-11T03:04:45.169Z,75.00
2023-01-11T03:09:45.072Z,75.05
2023-01-11T03:14:45.060Z,75.05
2023-01-11T03:19:44.928Z,75.09
2023-01-11T03:24:44.860Z,75.22
2023-01-11T03:29:44.811Z,75.28
2023-01-11T03:34:44.724Z,75.27
2023-01-11T03:39:44.635Z,75.33
2023-01-11T03:44:44.598Z,75.29
2023-01-11T03:49:44.496Z,75.27
2023-01-11T03:54:44.517Z,75.38
2023-01-11T03:59:44.364Z,75.43
2023-01-11T04:04:44.316Z,75.47
2023-01-11T04:09:44.233Z,75.47
2023-01-11T04:14:44.196Z,75.48
2023-01-11T04:19:44.112Z,75.44
2023-01-11T04:24:44.075Z,75.48
2023-01-11T04:29:44.002Z,75.44
2023-01-11T04:34:43.934Z,75.41
2023-01-11T04:39:43.841Z,75.41
2023-01-11T04:44:43.794Z,75.39
2023-01-11T04:49:43.699Z,75.42
2023-01-11T04:54:43.631Z,75.36
2023-01-11T04:59:43.569Z,75.34
2023-01-11T05:04:43.531Z,75.33
2023-01-11T05:09:43.416Z,75.30
2023-01-11T05:14:43.381Z,75.25
2023-01-11T05:19:57.913Z,74.77
2023-01-11T05:24:50.310Z,75.18
2023-01-11T05:29:50.259Z,75.30
2023-01-11T05:34:50.162Z,75.32
2023-01-11T05:39:50.119Z,75.31
2023-01-11T05:44:50.051Z,75.29
2023-01-11T05:49:49.987Z,75.26
2023-01-11T05:54:49.923Z,75.24
2023-01-11T05:59:49.903Z,75.25
2023-01-11T06:04:49.806Z,75.27
2023-01-11T06:09:49.711Z,75.28
2023-01-11T06:14:49.661Z,75.29
2023-01-11T06:19:49.585Z,75.47
2023-01-11T06:24:49.505Z,75.48
2023-01-11T06:29:49.457Z,75.42
2023-01-11T06:34:49.385Z,75.44
2023-01-11T06:39:49.320Z,75.41
2023-01-11T06:44:49.233Z,75.45
2023-01-11T06:49:49.185Z,75.48
2023-01-11T06:54:49.128Z,75.46
2023-01-11T06:59:49.075Z,75.47
2023-01-11T07:04:49.074Z,75.48
2023-01-11T07:09:48.917Z,75.50
2023-01-11T07:14:48.838Z,75.52
2023-01-11T07:19:48.771Z,75.54
2023-01-11T07:24:48.727Z,75.54
2023-01-11T07:29:48.649Z,75.64
2023-01-11T07:34:48.564Z,75.66
2023-01-11T07:39:48.560Z,75.62
2023-01-11T07:44:48.422Z,75.60
2023-01-11T07:49:48.415Z,75.57
2023-01-11T07:54:48.305Z,75.60
2023-01-11T07:59:48.237Z,75.63
2023-01-11T08:04:48.155Z,75.62
2023-01-11T08:09:48.279Z,75.59
2023-01-11T08:14:48.030Z,75.59
2023-01-11T08:19:48.063Z,75.59
2023-01-11T08:24:47.980Z,75.57
2023-01-11T08:29:47.870Z,75.52
2023-01-11T08:34:47.763Z,75.49
2023-01-11T08:39:47.715Z,75.48
2023-01-11T08:44:47.659Z,75.50
2023-01-11T08:49:47.553Z,75.52
2023-01-11T08:54:47.498Z,75.51
2023-01-11T08:59:47.425Z,75.57
2023-01-11T09:04:47.373Z,75.58
2023-01-11T09:09:47.289Z,75.54
2023-01-11T09:14:47.228Z,75.53
2023-01-11T09:19:47.193Z,75.53
2023-01-11T09:24:47.095Z,75.38
2023-01-11T09:29:47.066Z,75.43
2023-01-11T09:34:46.999Z,75.53
2023-01-11T09:39:46.894Z,75.49
2023-01-11T09:44:46.811Z,75.43
2023-01-11T09:49:46.791Z,75.31
2023-01-11T09:54:46.691Z,75.16
2023-01-11T09:59:46.660Z,74.90
2023-01-11T10:04:46.585Z,74.78
2023-01-11T10:18:32.895Z,74.75
2023-01-11T10:19:47.436Z,74.75
2023-01-11T10:24:46.307Z,74.64
2023-01-11T10:29:46.237Z,74.42
2023-01-11T10:34:46.155Z,74.23
2023-01-11T10:39:46.103Z,74.30
2023-01-11T10:44:46.017Z,74.50
2023-01-11T10:49:45.977Z,74.69
2023-01-11T10:54:46.891Z,74.88
2023-01-11T10:59:45.825Z,74.87
2023-01-11T11:04:45.728Z,74.86
2023-01-11T11:09:45.741Z,74.91
2023-01-11T11:14:45.602Z,74.70
2023-01-11T11:19:45.552Z,74.59
2023-01-11T11:24:45.518Z,74.27
2023-01-11T11:29:45.436Z,74.09
2023-01-11T11:34:45.328Z,73.86
2023-01-11T11:39:45.290Z,73.64
2023-01-11T11:44:45.219Z,73.36
2023-01-11T11:49:45.169Z,72.72
2023-01-11T11:54:45.087Z,72.00
2023-01-11T11:59:45.018Z,71.83
2023-01-11T12:04:45.012Z,71.68
2023-01-11T12:09:44.886Z,71.18
2023-01-11T12:14:44.864Z,70.96
2023-01-11T12:19:44.768Z,70.43
2023-01-11T12:24:44.684Z,69.96
2023-01-11T12:29:44.626Z,69.95
2023-01-11T12:34:44.546Z,69.81
2023-01-11T12:39:44.459Z,70.14
2023-01-11T12:44:44.414Z,70.40
2023-01-11T12:49:44.333Z,70.38
2023-01-11T12:54:44.275Z,70.52
2023-01-11T12:59:44.225Z,70.52
2023-01-11T13:04:44.131Z,70.66
2023-01-11T13:09:44.085Z,70.82
2023-01-11T13:14:43.989Z,70.87
2023-01-11T13:19:44.004Z,70.78
2023-01-11T13:24:43.868Z,70.75
2023-01-11T13:29:43.789Z,70.44
2023-01-11T13:34:44.703Z,70.02
2023-01-11T13:39:43.723Z,69.99
2023-01-11T13:44:43.561Z,70.09
2023-01-11T13:49:43.527Z,70.01
2023-01-11T13:54:43.444Z,69.11
2023-01-11T13:59:43.399Z,69.09
2023-01-11T14:04:43.287Z,69.03
2023-01-11T14:09:43.319Z,69.01
2023-01-11T14:14:43.189Z,69.20
2023-01-11T14:19:43.126Z,69.28
2023-01-11T14:24:43.060Z,68.71
2023-01-11T14:29:43.004Z,68.65
2023-01-11T14:34:42.937Z,68.65
2023-01-11T14:39:42.877Z,68.65
2023-01-11T14:44:42.793Z,68.78
2023-01-11T14:49:42.745Z,69.04
2023-01-11T14:54:44.741Z,69.23
2023-01-11T14:59:42.584Z,69.43
2023-01-11T15:04:42.543Z,69.53
2023-01-11T15:09:42.459Z,69.66
2023-01-11T15:14:42.380Z,69.77
2023-01-11T15:19:42.308Z,69.98
2023-01-11T15:24:42.227Z,70.09
2023-01-11T15:29:42.187Z,70.17
2023-01-11T15:34:42.106Z,70.29
2023-01-11T15:39:42.032Z,70.42
2023-01-11T15:44:41.999Z,70.43
2023-01-11T15:49:41.984Z,70.52
2023-01-11T15:54:41.850Z,70.70
2023-01-11T15:59:41.774Z,70.81
2023-01-11T16:04:41.701Z,70.98
2023-01-11T16:09:41.672Z,71.08
2023-01-11T16:14:41.573Z,71.22
2023-01-11T16:19:41.487Z,71.37
2023-01-11T16:24:41.445Z,71.47
2023-01-11T16:29:41.369Z,71.51
2023-01-11T16:34:41.313Z,71.53
2023-01-11T16:39:41.256Z,71.60
2023-01-11T16:44:41.179Z,71.62
2023-01-11T16:49:41.103Z,71.69
2023-01-11T16:54:41.058Z,71.81
2023-01-11T16:59:40.965Z,71.92
2023-01-11T17:04:40.913Z,72.03
2023-01-11T17:09:42.984Z,72.11
2023-01-11T17:14:40.871Z,72.19
2023-01-11T17:19:40.740Z,72.29
2023-01-11T17:24:40.663Z,72.35
2023-01-11T17:29:40.572Z,72.42
2023-01-11T17:34:40.506Z,72.45
2023-01-11T17:39:42.424Z,72.50
2023-01-11T17:44:40.406Z,72.52
2023-01-11T17:49:40.306Z,72.57
2023-01-11T17:54:40.250Z,72.56
2023-01-11T17:59:40.193Z,72.59
2023-01-11T18:04:40.088Z,72.54
2023-01-11T18:09:40.064Z,72.56
2023-01-11T18:14:39.967Z,72.61
2023-01-11T18:19:39.944Z,72.61
2023-01-11T18:24:39.825Z,72.62
2023-01-11T18:29:39.798Z,72.56
2023-01-11T18:34:39.701Z,72.54
2023-01-11T18:39:39.688Z,72.58
2023-01-11T18:44:39.561Z,72.71
2023-01-11T18:49:39.499Z,72.79
2023-01-11T18:54:39.437Z,72.83
2023-01-11T18:59:39.381Z,72.87
2023-01-11T19:04:39.290Z,72.98
2023-01-11T19:09:41.146Z,73.05
2023-01-11T19:14:39.160Z,73.11
2023-01-11T19:19:39.113Z,73.17
2023-01-11T19:24:39.009Z,73.23
2023-01-11T19:29:38.974Z,73.23
2023-01-11T19:34:38.888Z,73.29
2023-01-11T19:39:38.809Z,73.33
2023-01-11T19:44:38.772Z,73.38
2023-01-11T19:49:38.714Z,73.35
2023-01-11T19:54:38.653Z,73.41
2023-01-11T19:59:38.569Z,73.46
2023-01-11T20:04:38.496Z,73.39
2023-01-11T20:09:38.449Z,73.39
2023-01-11T20:14:38.385Z,73.29
2023-01-11T20:19:38.327Z,73.27
2023-01-11T20:24:38.196Z,73.27
2023-01-11T20:29:38.195Z,73.34
2023-01-11T20:34:38.136Z,73.40
2023-01-11T20:39:38.064Z,73.42
2023-01-11T20:44:37.940Z,73.48
2023-01-11T20:49:37.900Z,73.50
2023-01-11T20:54:37.828Z,73.51
2023-01-11T20:59:37.806Z,73.44
2023-01-11T21:04:37.770Z,73.36
2023-01-11T21:09:37.647Z,73.28
2023-01-11T21:14:37.599Z,73.28
2023-01-11T21:19:38.459Z,73.32
2023-01-11T21:24:37.397Z,73.25
2023-01-11T21:29:37.377Z,73.19
2023-01-11T21:34:37.306Z,73.17
2023-01-11T21:39:37.226Z,73.17
2023-01-11T21:44:37.147Z,73.14
2023-01-11T21:49:37.132Z,73.08
2023-01-11T21:54:37.015Z,73.09
2023-01-11T21:59:36.945Z,73.04
2023-01-11T22:04:36.888Z,72.99
2023-01-11T22:09:36.847Z,72.98
2023-01-11T22:14:36.766Z,72.94
2023-01-11T22:19:36.708Z,72.88
2023-01-11T22:24:36.629Z,72.86
2023-01-11T22:29:36.599Z,72.86
2023-01-11T22:34:36.479Z,72.84
2023-01-11T22:39:36.429Z,72.80
2023-01-11T22:44:36.333Z,72.76
2023-01-11T22:49:36.329Z,72.74
2023-01-11T22:54:36.248Z,72.71
2023-01-11T22:59:36.256Z,72.70
2023-01-11T23:04:36.080Z,72.66
2023-01-11T23:09:36.033Z,72.65
2023-01-11T23:14:35.950Z,72.64
2023-01-11T23:19:35.986Z,72.58
2023-01-11T23:24:35.888Z,72.58
2023-01-11T23:29:35.761Z,72.55
2023-01-11T23:34:35.690Z,72.51
2023-01-11T23:39:35.615Z,72.45
2023-01-11T23:44:35.539Z,72.43
2023-01-11T23:49:35.501Z,72.41
2023-01-11T23:54:35.426Z,72.38
2023-01-11T23:59:35.383Z,72.35
